sensor_id;sensor_type;location;lat;lon;timestamp;temperature;humidity
37410;DHT22;23275;48.914;12.566;2024-01-06T00:00:01;4.60;99.90
37410;DHT22;23275;48.914;12.566;2024-01-06T00:02:27;4.50;99.90
37410;DHT22;23275;48.914;12.566;2024-01-06T00:04:52;4.50;99.90
37410;DHT22;23275;48.914;12.566;2024-01-06T00:07:18;4.60;99.90
37410;DHT22;23275;48.914;12.566;2024-01-06T00:09:43;4.60;99.90
37410;DHT22;23275;48.914;12.566;2024-01-06T00:12:09;4.60;99.90
37410;DHT22;23275;48.914;12.566;2024-01-06T00:14:35;4.60;99.90
37410;DHT22;23275;48.914;12.566;2024-01-06T00:17:00;4.60;99.90
37410;DHT22;23275;48.914;12.566;2024-01-06T00:19:26;4.60;99.90
37410;DHT22;23275;48.914;12.566;2024-01-06T00:21:51;4.60;99.90
37410;DHT22;23275;48.914;12.566;2024-01-06T00:24:17;4.60;99.90
37410;DHT22;23275;48.914;12.566;2024-01-06T00:26:42;4.60;99.90
37410;DHT22;23275;48.914;12.566;2024-01-06T00:29:08;4.60;99.90
37410;DHT22;23275;48.914;12.566;2024-01-06T00:31:33;4.60;99.90
37410;DHT22;23275;48.914;12.566;2024-01-06T00:33:59;4.70;99.90
37410;DHT22;23275;48.914;12.566;2024-01-06T00:36:24;4.70;99.90
37410;DHT22;23275;48.914;12.566;2024-01-06T00:38:50;4.70;99.90
37410;DHT22;23275;48.914;12.566;2024-01-06T00:41:15;4.70;99.90
37410;DHT22;23275;48.914;12.566;2024-01-06T00:43:42;4.70;99.90
37410;DHT22;23275;48.914;12.566;2024-01-06T00:46:07;4.80;99.90
37410;DHT22;23275;48.914;12.566;2024-01-06T00:48:33;4.80;99.90
37410;DHT22;23275;48.914;12.566;2024-01-06T00:50:58;4.80;99.90
37410;DHT22;23275;48.914;12.566;2024-01-06T00:53:24;4.80;99.90
37410;DHT22;23275;48.914;12.566;2024-01-06T00:55:49;4.80;99.90
37410;DHT22;23275;48.914;12.566;2024-01-06T00:58:15;4.80;99.90
37410;DHT22;23275;48.914;12.566;2024-01-06T01:00:41;4.80;99.90
37410;DHT22;23275;48.914;12.566;2024-01-06T01:03:06;4.80;99.90
37410;DHT22;23275;48.914;12.566;2024-01-06T01:05:32;4.90;99.90
37410;DHT22;23275;48.914;12.566;2024-01-06T01:07:58;4.80;99.90
37410;DHT22;23275;48.914;12.566;2024-01-06T01:10:23;4.90;99.90
37410;DHT22;23275;48.914;12.566;2024-01-06T01:12:49;4.90;99.90
37410;DHT22;23275;48.914;12.566;2024-01-06T01:15:14;4.80;99.90
37410;DHT22;23275;48.914;12.566;2024-01-06T01:17:40;4.80;99.90
37410;DHT22;23275;48.914;12.566;2024-01-06T01:20:06;4.80;99.90
37410;DHT22;23275;48.914;12.566;2024-01-06T01:22:31;4.80;99.90
37410;DHT22;23275;48.914;12.566;2024-01-06T01:24:57;4.90;99.90
37410;DHT22;23275;48.914;12.566;2024-01-06T01:27:22;4.80;99.90
37410;DHT22;23275;48.914;12.566;2024-01-06T01:29:48;4.80;99.90
37410;DHT22;23275;48.914;12.566;2024-01-06T01:32:18;4.80;99.90
37410;DHT22;23275;48.914;12.566;2024-01-06T01:34:43;4.80;99.90
37410;DHT22;23275;48.914;12.566;2024-01-06T01:37:09;4.80;99.90
37410;DHT22;23275;48.914;12.566;2024-01-06T01:39:34;4.80;99.90
37410;DHT22;23275;48.914;12.566;2024-01-06T01:42:00;4.80;99.90
37410;DHT22;23275;48.914;12.566;2024-01-06T01:44:25;4.80;99.90
37410;DHT22;23275;48.914;12.566;2024-01-06T01:46:51;4.80;99.90
37410;DHT22;23275;48.914;12.566;2024-01-06T01:49:17;4.80;99.90
37410;DHT22;23275;48.914;12.566;2024-01-06T01:51:42;4.80;99.90
37410;DHT22;23275;48.914;12.566;2024-01-06T01:54:09;4.70;99.90
37410;DHT22;23275;48.914;12.566;2024-01-06T01:56:36;4.70;99.90
37410;DHT22;23275;48.914;12.566;2024-01-06T01:59:13;4.70;99.90
37410;DHT22;23275;48.914;12.566;2024-01-06T02:01:40;4.70;99.90
37410;DHT22;23275;48.914;12.566;2024-01-06T02:04:06;4.70;99.90
37410;DHT22;23275;48.914;12.566;2024-01-06T02:06:31;4.70;99.90
37410;DHT22;23275;48.914;12.566;2024-01-06T02:08:57;4.70;99.90
37410;DHT22;23275;48.914;12.566;2024-01-06T02:11:23;4.70;99.90
37410;DHT22;23275;48.914;12.566;2024-01-06T02:13:49;4.70;99.90
37410;DHT22;23275;48.914;12.566;2024-01-06T02:16:14;4.80;99.90
37410;DHT22;23275;48.914;12.566;2024-01-06T02:18:40;4.70;99.90
37410;DHT22;23275;48.914;12.566;2024-01-06T02:21:06;4.80;99.90
37410;DHT22;23275;48.914;12.566;2024-01-06T02:23:35;4.80;99.90
37410;DHT22;23275;48.914;12.566;2024-01-06T02:26:01;4.80;99.90
37410;DHT22;23275;48.914;12.566;2024-01-06T02:28:26;4.80;99.90
37410;DHT22;23275;48.914;12.566;2024-01-06T02:30:52;4.80;99.90
37410;DHT22;23275;48.914;12.566;2024-01-06T02:33:18;4.80;99.90
37410;DHT22;23275;48.914;12.566;2024-01-06T02:35:45;4.80;99.90
37410;DHT22;23275;48.914;12.566;2024-01-06T02:38:11;4.80;99.90
37410;DHT22;23275;48.914;12.566;2024-01-06T02:40:36;4.90;99.90
37410;DHT22;23275;48.914;12.566;2024-01-06T02:43:02;4.80;99.90
37410;DHT22;23275;48.914;12.566;2024-01-06T02:45:28;4.80;99.90
37410;DHT22;23275;48.914;12.566;2024-01-06T02:47:53;4.80;99.90
37410;DHT22;23275;48.914;12.566;2024-01-06T02:50:19;4.70;99.90
37410;DHT22;23275;48.914;12.566;2024-01-06T02:52:44;4.80;99.90
37410;DHT22;23275;48.914;12.566;2024-01-06T02:55:13;4.80;99.90
37410;DHT22;23275;48.914;12.566;2024-01-06T02:57:39;4.80;99.90
37410;DHT22;23275;48.914;12.566;2024-01-06T03:00:07;4.80;99.90
37410;DHT22;23275;48.914;12.566;2024-01-06T03:02:32;4.80;99.90
37410;DHT22;23275;48.914;12.566;2024-01-06T03:04:58;4.80;99.90
37410;DHT22;23275;48.914;12.566;2024-01-06T03:07:24;4.90;99.90
37410;DHT22;23275;48.914;12.566;2024-01-06T03:09:49;4.90;99.90
37410;DHT22;23275;48.914;12.566;2024-01-06T03:12:15;4.90;99.90
37410;DHT22;23275;48.914;12.566;2024-01-06T03:14:40;4.80;99.90
37410;DHT22;23275;48.914;12.566;2024-01-06T03:17:06;4.80;99.90
37410;DHT22;23275;48.914;12.566;2024-01-06T03:19:31;4.80;99.90
37410;DHT22;23275;48.914;12.566;2024-01-06T03:21:57;4.80;99.90
37410;DHT22;23275;48.914;12.566;2024-01-06T03:24:24;4.80;99.90
37410;DHT22;23275;48.914;12.566;2024-01-06T03:26:50;4.80;99.90
37410;DHT22;23275;48.914;12.566;2024-01-06T03:29:16;4.80;99.90
37410;DHT22;23275;48.914;12.566;2024-01-06T03:31:45;4.80;99.90
37410;DHT22;23275;48.914;12.566;2024-01-06T03:34:11;4.80;99.90
37410;DHT22;23275;48.914;12.566;2024-01-06T03:36:37;4.80;99.90
37410;DHT22;23275;48.914;12.566;2024-01-06T03:39:03;4.80;99.90
37410;DHT22;23275;48.914;12.566;2024-01-06T03:41:29;4.80;99.90
37410;DHT22;23275;48.914;12.566;2024-01-06T03:43:54;4.80;99.90
37410;DHT22;23275;48.914;12.566;2024-01-06T03:46:20;4.80;99.90
37410;DHT22;23275;48.914;12.566;2024-01-06T03:48:45;4.80;99.90
37410;DHT22;23275;48.914;12.566;2024-01-06T03:51:12;4.80;99.90
37410;DHT22;23275;48.914;12.566;2024-01-06T03:53:37;4.80;99.90
37410;DHT22;23275;48.914;12.566;2024-01-06T03:56:04;4.80;99.90
37410;DHT22;23275;48.914;12.566;2024-01-06T03:58:29;4.80;99.90
37410;DHT22;23275;48.914;12.566;2024-01-06T04:00:55;4.80;99.90
37410;DHT22;23275;48.914;12.566;2024-01-06T04:03:20;4.80;99.90
37410;DHT22;23275;48.914;12.566;2024-01-06T04:05:46;4.80;99.90
37410;DHT22;23275;48.914;12.566;2024-01-06T04:08:12;4.80;99.90
37410;DHT22;23275;48.914;12.566;2024-01-06T04:10:37;4.80;99.90
37410;DHT22;23275;48.914;12.566;2024-01-06T04:13:03;4.80;99.90
37410;DHT22;23275;48.914;12.566;2024-01-06T04:15:29;4.80;99.90
37410;DHT22;23275;48.914;12.566;2024-01-06T04:17:55;4.80;99.90
37410;DHT22;23275;48.914;12.566;2024-01-06T04:20:20;4.80;99.90
37410;DHT22;23275;48.914;12.566;2024-01-06T04:22:46;4.80;99.90
37410;DHT22;23275;48.914;12.566;2024-01-06T04:25:12;4.80;99.90
37410;DHT22;23275;48.914;12.566;2024-01-06T04:27:37;4.80;99.90
37410;DHT22;23275;48.914;12.566;2024-01-06T04:30:03;4.80;99.90
37410;DHT22;23275;48.914;12.566;2024-01-06T04:32:29;4.80;99.90
37410;DHT22;23275;48.914;12.566;2024-01-06T04:34:54;4.80;99.90
37410;DHT22;23275;48.914;12.566;2024-01-06T04:37:22;4.80;99.90
37410;DHT22;23275;48.914;12.566;2024-01-06T04:39:47;4.80;99.90
37410;DHT22;23275;48.914;12.566;2024-01-06T04:42:13;4.80;99.90
37410;DHT22;23275;48.914;12.566;2024-01-06T04:44:38;4.80;99.90
37410;DHT22;23275;48.914;12.566;2024-01-06T04:47:04;4.90;99.90
37410;DHT22;23275;48.914;12.566;2024-01-06T04:49:29;4.90;99.90
37410;DHT22;23275;48.914;12.566;2024-01-06T04:51:55;4.90;99.90
37410;DHT22;23275;48.914;12.566;2024-01-06T04:54:21;4.90;99.90
37410;DHT22;23275;48.914;12.566;2024-01-06T04:56:47;4.90;99.90
37410;DHT22;23275;48.914;12.566;2024-01-06T04:59:13;4.90;99.90
37410;DHT22;23275;48.914;12.566;2024-01-06T05:01:38;4.90;99.90
37410;DHT22;23275;48.914;12.566;2024-01-06T05:04:04;4.80;99.90
37410;DHT22;23275;48.914;12.566;2024-01-06T05:06:30;4.90;99.90
37410;DHT22;23275;48.914;12.566;2024-01-06T05:08:56;4.90;99.90
37410;DHT22;23275;48.914;12.566;2024-01-06T05:11:22;4.90;99.90
37410;DHT22;23275;48.914;12.566;2024-01-06T05:13:47;4.80;99.90
37410;DHT22;23275;48.914;12.566;2024-01-06T05:16:13;4.80;99.90
37410;DHT22;23275;48.914;12.566;2024-01-06T05:18:39;4.70;99.90
37410;DHT22;23275;48.914;12.566;2024-01-06T05:21:05;4.70;99.90
37410;DHT22;23275;48.914;12.566;2024-01-06T05:23:30;4.70;99.90
37410;DHT22;23275;48.914;12.566;2024-01-06T05:25:56;4.70;99.90
37410;DHT22;23275;48.914;12.566;2024-01-06T05:28:21;4.70;99.90
37410;DHT22;23275;48.914;12.566;2024-01-06T05:30:47;4.70;99.90
37410;DHT22;23275;48.914;12.566;2024-01-06T05:33:12;4.70;99.90
37410;DHT22;23275;48.914;12.566;2024-01-06T05:35:39;4.70;99.90
37410;DHT22;23275;48.914;12.566;2024-01-06T05:38:04;4.70;99.90
37410;DHT22;23275;48.914;12.566;2024-01-06T05:40:30;4.70;99.90
37410;DHT22;23275;48.914;12.566;2024-01-06T05:42:56;4.70;99.90
37410;DHT22;23275;48.914;12.566;2024-01-06T05:45:22;4.70;99.90
37410;DHT22;23275;48.914;12.566;2024-01-06T05:47:48;4.70;99.90
37410;DHT22;23275;48.914;12.566;2024-01-06T05:50:15;4.70;99.90
37410;DHT22;23275;48.914;12.566;2024-01-06T05:52:41;4.70;99.90
37410;DHT22;23275;48.914;12.566;2024-01-06T05:55:07;4.70;99.90
37410;DHT22;23275;48.914;12.566;2024-01-06T05:57:33;4.70;99.90
37410;DHT22;23275;48.914;12.566;2024-01-06T05:59:59;4.70;99.90
37410;DHT22;23275;48.914;12.566;2024-01-06T06:02:25;4.70;99.90
37410;DHT22;23275;48.914;12.566;2024-01-06T06:04:51;4.70;99.90
37410;DHT22;23275;48.914;12.566;2024-01-06T06:07:16;4.70;99.90
37410;DHT22;23275;48.914;12.566;2024-01-06T06:09:42;4.70;99.90
37410;DHT22;23275;48.914;12.566;2024-01-06T06:12:07;4.70;99.90
37410;DHT22;23275;48.914;12.566;2024-01-06T06:14:33;4.70;99.90
37410;DHT22;23275;48.914;12.566;2024-01-06T06:16:58;4.70;99.90
37410;DHT22;23275;48.914;12.566;2024-01-06T06:19:24;4.70;99.90
37410;DHT22;23275;48.914;12.566;2024-01-06T06:21:50;4.80;99.90
37410;DHT22;23275;48.914;12.566;2024-01-06T06:24:15;4.80;99.90
37410;DHT22;23275;48.914;12.566;2024-01-06T06:26:41;4.80;99.90
37410;DHT22;23275;48.914;12.566;2024-01-06T06:29:06;4.80;99.90
37410;DHT22;23275;48.914;12.566;2024-01-06T06:31:32;4.80;99.90
37410;DHT22;23275;48.914;12.566;2024-01-06T06:33:57;4.90;99.90
37410;DHT22;23275;48.914;12.566;2024-01-06T06:36:23;4.90;99.90
37410;DHT22;23275;48.914;12.566;2024-01-06T06:38:48;4.90;99.90
37410;DHT22;23275;48.914;12.566;2024-01-06T06:41:14;4.90;99.90
37410;DHT22;23275;48.914;12.566;2024-01-06T06:43:41;4.90;99.90
37410;DHT22;23275;48.914;12.566;2024-01-06T06:46:06;4.90;99.90
37410;DHT22;23275;48.914;12.566;2024-01-06T06:48:32;4.90;99.90
37410;DHT22;23275;48.914;12.566;2024-01-06T06:50:57;4.90;99.90
37410;DHT22;23275;48.914;12.566;2024-01-06T06:53:23;4.90;99.90
37410;DHT22;23275;48.914;12.566;2024-01-06T06:55:48;4.90;99.90
37410;DHT22;23275;48.914;12.566;2024-01-06T06:58:14;4.90;99.90
37410;DHT22;23275;48.914;12.566;2024-01-06T07:00:39;4.90;99.90
37410;DHT22;23275;48.914;12.566;2024-01-06T07:03:05;4.90;99.90
37410;DHT22;23275;48.914;12.566;2024-01-06T07:05:30;4.90;99.90
37410;DHT22;23275;48.914;12.566;2024-01-06T07:07:56;4.80;99.90
37410;DHT22;23275;48.914;12.566;2024-01-06T07:10:22;4.80;99.90
37410;DHT22;23275;48.914;12.566;2024-01-06T07:12:48;4.90;99.90
37410;DHT22;23275;48.914;12.566;2024-01-06T07:15:13;4.80;99.90
37410;DHT22;23275;48.914;12.566;2024-01-06T07:17:39;4.80;99.90
37410;DHT22;23275;48.914;12.566;2024-01-06T07:20:07;4.80;99.90
37410;DHT22;23275;48.914;12.566;2024-01-06T07:22:34;4.80;99.90
37410;DHT22;23275;48.914;12.566;2024-01-06T07:25:02;4.80;99.90
37410;DHT22;23275;48.914;12.566;2024-01-06T07:27:28;4.80;99.90
37410;DHT22;23275;48.914;12.566;2024-01-06T07:29:54;4.80;99.90
37410;DHT22;23275;48.914;12.566;2024-01-06T07:32:22;4.80;99.90
37410;DHT22;23275;48.914;12.566;2024-01-06T07:34:47;4.90;99.90
37410;DHT22;23275;48.914;12.566;2024-01-06T07:37:13;4.90;99.90
37410;DHT22;23275;48.914;12.566;2024-01-06T07:39:39;4.90;99.90
37410;DHT22;23275;48.914;12.566;2024-01-06T07:42:04;5.00;99.90
37410;DHT22;23275;48.914;12.566;2024-01-06T07:44:30;5.00;99.90
37410;DHT22;23275;48.914;12.566;2024-01-06T07:46:55;5.00;99.90
37410;DHT22;23275;48.914;12.566;2024-01-06T07:49:21;5.00;99.90
37410;DHT22;23275;48.914;12.566;2024-01-06T07:51:46;5.00;99.90
37410;DHT22;23275;48.914;12.566;2024-01-06T07:54:12;5.00;99.90
37410;DHT22;23275;48.914;12.566;2024-01-06T07:56:38;5.00;99.90
37410;DHT22;23275;48.914;12.566;2024-01-06T07:59:04;5.00;99.90
37410;DHT22;23275;48.914;12.566;2024-01-06T08:01:30;5.00;99.90
37410;DHT22;23275;48.914;12.566;2024-01-06T08:03:57;5.00;99.90
37410;DHT22;23275;48.914;12.566;2024-01-06T08:06:22;5.00;99.90
37410;DHT22;23275;48.914;12.566;2024-01-06T08:08:48;5.00;99.90
37410;DHT22;23275;48.914;12.566;2024-01-06T08:11:14;5.00;99.90
37410;DHT22;23275;48.914;12.566;2024-01-06T08:13:39;5.00;99.90
37410;DHT22;23275;48.914;12.566;2024-01-06T08:16:05;5.10;99.90
37410;DHT22;23275;48.914;12.566;2024-01-06T08:18:31;5.10;99.90
37410;DHT22;23275;48.914;12.566;2024-01-06T08:20:56;5.10;99.90
37410;DHT22;23275;48.914;12.566;2024-01-06T08:23:22;5.10;99.90
37410;DHT22;23275;48.914;12.566;2024-01-06T08:25:48;5.10;99.90
37410;DHT22;23275;48.914;12.566;2024-01-06T08:28:14;5.20;99.90
37410;DHT22;23275;48.914;12.566;2024-01-06T08:30:40;5.20;99.90
37410;DHT22;23275;48.914;12.566;2024-01-06T08:33:06;5.30;99.90
37410;DHT22;23275;48.914;12.566;2024-01-06T08:35:32;5.30;99.90
37410;DHT22;23275;48.914;12.566;2024-01-06T08:37:57;5.40;99.90
37410;DHT22;23275;48.914;12.566;2024-01-06T08:40:23;5.40;99.90
37410;DHT22;23275;48.914;12.566;2024-01-06T08:42:49;5.30;99.90
37410;DHT22;23275;48.914;12.566;2024-01-06T08:45:14;5.30;99.90
37410;DHT22;23275;48.914;12.566;2024-01-06T08:47:40;5.30;99.90
37410;DHT22;23275;48.914;12.566;2024-01-06T08:50:07;5.40;99.90
37410;DHT22;23275;48.914;12.566;2024-01-06T08:52:32;5.50;99.90
37410;DHT22;23275;48.914;12.566;2024-01-06T08:54:58;5.60;99.90
37410;DHT22;23275;48.914;12.566;2024-01-06T08:57:23;5.60;99.90
37410;DHT22;23275;48.914;12.566;2024-01-06T08:59:49;5.70;99.90
37410;DHT22;23275;48.914;12.566;2024-01-06T09:02:14;5.70;99.90
37410;DHT22;23275;48.914;12.566;2024-01-06T09:04:40;5.60;99.90
37410;DHT22;23275;48.914;12.566;2024-01-06T09:07:05;5.70;99.90
37410;DHT22;23275;48.914;12.566;2024-01-06T09:09:31;5.70;99.90
37410;DHT22;23275;48.914;12.566;2024-01-06T09:11:57;5.60;99.90
37410;DHT22;23275;48.914;12.566;2024-01-06T09:14:22;5.60;99.90
37410;DHT22;23275;48.914;12.566;2024-01-06T09:16:48;5.50;99.90
37410;DHT22;23275;48.914;12.566;2024-01-06T09:19:14;5.50;99.90
37410;DHT22;23275;48.914;12.566;2024-01-06T09:21:39;5.60;99.90
37410;DHT22;23275;48.914;12.566;2024-01-06T09:24:05;5.50;99.90
37410;DHT22;23275;48.914;12.566;2024-01-06T09:26:34;5.60;99.90
37410;DHT22;23275;48.914;12.566;2024-01-06T09:29:01;5.70;99.90
37410;DHT22;23275;48.914;12.566;2024-01-06T09:31:26;5.80;99.90
37410;DHT22;23275;48.914;12.566;2024-01-06T09:33:52;5.90;99.90
37410;DHT22;23275;48.914;12.566;2024-01-06T09:36:18;6.00;99.90
37410;DHT22;23275;48.914;12.566;2024-01-06T09:38:43;6.00;99.90
37410;DHT22;23275;48.914;12.566;2024-01-06T09:41:09;6.00;99.90
37410;DHT22;23275;48.914;12.566;2024-01-06T09:43:35;6.10;99.90
37410;DHT22;23275;48.914;12.566;2024-01-06T09:48:47;6.20;99.90
37410;DHT22;23275;48.914;12.566;2024-01-06T09:51:14;6.10;99.90
37410;DHT22;23275;48.914;12.566;2024-01-06T09:53:46;6.10;99.90
37410;DHT22;23275;48.914;12.566;2024-01-06T09:56:15;6.10;99.90
37410;DHT22;23275;48.914;12.566;2024-01-06T09:58:41;6.10;99.90
37410;DHT22;23275;48.914;12.566;2024-01-06T10:01:07;6.10;99.90
37410;DHT22;23275;48.914;12.566;2024-01-06T10:03:35;6.10;99.90
37410;DHT22;23275;48.914;12.566;2024-01-06T10:06:01;6.10;99.90
37410;DHT22;23275;48.914;12.566;2024-01-06T10:08:29;6.10;99.90
37410;DHT22;23275;48.914;12.566;2024-01-06T10:10:55;6.10;99.90
37410;DHT22;23275;48.914;12.566;2024-01-06T10:13:20;6.30;99.90
37410;DHT22;23275;48.914;12.566;2024-01-06T10:15:46;6.40;99.90
37410;DHT22;23275;48.914;12.566;2024-01-06T10:18:13;6.50;99.90
37410;DHT22;23275;48.914;12.566;2024-01-06T10:20:38;6.50;99.90
37410;DHT22;23275;48.914;12.566;2024-01-06T10:23:05;6.60;99.90
37410;DHT22;23275;48.914;12.566;2024-01-06T10:25:31;6.60;99.90
37410;DHT22;23275;48.914;12.566;2024-01-06T10:27:57;6.60;99.90
37410;DHT22;23275;48.914;12.566;2024-01-06T10:30:25;6.60;99.90
37410;DHT22;23275;48.914;12.566;2024-01-06T10:32:51;6.60;99.90
37410;DHT22;23275;48.914;12.566;2024-01-06T10:35:18;6.70;99.90
37410;DHT22;23275;48.914;12.566;2024-01-06T10:37:45;6.70;99.90
37410;DHT22;23275;48.914;12.566;2024-01-06T10:40:17;6.70;99.90
37410;DHT22;23275;48.914;12.566;2024-01-06T10:42:43;6.70;99.90
37410;DHT22;23275;48.914;12.566;2024-01-06T10:45:10;6.80;99.90
37410;DHT22;23275;48.914;12.566;2024-01-06T10:47:37;6.90;99.90
37410;DHT22;23275;48.914;12.566;2024-01-06T10:50:04;6.90;99.90
37410;DHT22;23275;48.914;12.566;2024-01-06T10:52:30;6.90;99.90
37410;DHT22;23275;48.914;12.566;2024-01-06T10:54:57;6.90;99.90
37410;DHT22;23275;48.914;12.566;2024-01-06T10:57:23;7.00;99.90
37410;DHT22;23275;48.914;12.566;2024-01-06T10:59:52;7.10;99.90
37410;DHT22;23275;48.914;12.566;2024-01-06T11:02:19;7.10;99.90
37410;DHT22;23275;48.914;12.566;2024-01-06T11:04:48;7.00;99.90
37410;DHT22;23275;48.914;12.566;2024-01-06T11:07:17;7.10;99.90
37410;DHT22;23275;48.914;12.566;2024-01-06T11:09:51;7.10;99.90
37410;DHT22;23275;48.914;12.566;2024-01-06T11:12:18;7.10;99.90
37410;DHT22;23275;48.914;12.566;2024-01-06T11:14:44;7.20;99.90
37410;DHT22;23275;48.914;12.566;2024-01-06T11:17:11;7.30;99.90
37410;DHT22;23275;48.914;12.566;2024-01-06T11:24:47;7.20;99.90
37410;DHT22;23275;48.914;12.566;2024-01-06T11:27:27;7.10;99.90
37410;DHT22;23275;48.914;12.566;2024-01-06T11:30:00;7.00;99.90
37410;DHT22;23275;48.914;12.566;2024-01-06T11:32:30;6.90;99.90
37410;DHT22;23275;48.914;12.566;2024-01-06T11:35:11;6.90;99.90
37410;DHT22;23275;48.914;12.566;2024-01-06T11:40:08;6.80;99.90
37410;DHT22;23275;48.914;12.566;2024-01-06T11:42:34;6.80;99.90
37410;DHT22;23275;48.914;12.566;2024-01-06T11:45:04;6.70;99.90
37410;DHT22;23275;48.914;12.566;2024-01-06T11:47:36;6.70;99.90
37410;DHT22;23275;48.914;12.566;2024-01-06T11:50:03;6.70;99.90
37410;DHT22;23275;48.914;12.566;2024-01-06T11:52:34;6.60;99.90
37410;DHT22;23275;48.914;12.566;2024-01-06T11:55:00;6.60;99.90
37410;DHT22;23275;48.914;12.566;2024-01-06T11:57:29;6.70;99.90
37410;DHT22;23275;48.914;12.566;2024-01-06T11:59:55;6.70;99.90
37410;DHT22;23275;48.914;12.566;2024-01-06T12:02:21;6.70;99.90
37410;DHT22;23275;48.914;12.566;2024-01-06T12:04:53;6.70;99.90
37410;DHT22;23275;48.914;12.566;2024-01-06T12:07:19;6.70;99.90
37410;DHT22;23275;48.914;12.566;2024-01-06T12:09:49;6.70;99.90
37410;DHT22;23275;48.914;12.566;2024-01-06T12:12:18;6.60;99.90
37410;DHT22;23275;48.914;12.566;2024-01-06T12:14:44;6.60;99.90
37410;DHT22;23275;48.914;12.566;2024-01-06T12:17:11;6.50;99.90
37410;DHT22;23275;48.914;12.566;2024-01-06T12:19:38;6.40;99.90
37410;DHT22;23275;48.914;12.566;2024-01-06T12:22:05;6.40;99.90
37410;DHT22;23275;48.914;12.566;2024-01-06T12:24:31;6.30;99.90
37410;DHT22;23275;48.914;12.566;2024-01-06T12:26:57;6.30;99.90
37410;DHT22;23275;48.914;12.566;2024-01-06T12:29:26;6.30;99.90
37410;DHT22;23275;48.914;12.566;2024-01-06T12:31:52;6.20;99.90
37410;DHT22;23275;48.914;12.566;2024-01-06T12:34:18;6.20;99.90
37410;DHT22;23275;48.914;12.566;2024-01-06T12:36:44;6.20;99.90
37410;DHT22;23275;48.914;12.566;2024-01-06T12:39:12;6.20;99.90
37410;DHT22;23275;48.914;12.566;2024-01-06T12:41:39;6.20;99.90
37410;DHT22;23275;48.914;12.566;2024-01-06T12:44:06;6.20;99.90
37410;DHT22;23275;48.914;12.566;2024-01-06T12:46:32;6.20;99.90
37410;DHT22;23275;48.914;12.566;2024-01-06T12:48:58;6.20;99.90
37410;DHT22;23275;48.914;12.566;2024-01-06T12:51:23;6.20;99.90
37410;DHT22;23275;48.914;12.566;2024-01-06T12:53:49;6.20;99.90
37410;DHT22;23275;48.914;12.566;2024-01-06T12:56:15;6.20;99.90
37410;DHT22;23275;48.914;12.566;2024-01-06T12:58:41;6.20;99.90
37410;DHT22;23275;48.914;12.566;2024-01-06T13:01:07;6.20;99.90
37410;DHT22;23275;48.914;12.566;2024-01-06T13:03:33;6.30;99.90
37410;DHT22;23275;48.914;12.566;2024-01-06T13:06:00;6.30;99.90
37410;DHT22;23275;48.914;12.566;2024-01-06T13:08:26;6.20;99.90
37410;DHT22;23275;48.914;12.566;2024-01-06T13:10:53;6.20;99.90
37410;DHT22;23275;48.914;12.566;2024-01-06T13:13:19;6.20;99.90
37410;DHT22;23275;48.914;12.566;2024-01-06T13:15:44;6.20;99.90
37410;DHT22;23275;48.914;12.566;2024-01-06T13:18:11;6.20;99.90
37410;DHT22;23275;48.914;12.566;2024-01-06T13:20:38;6.20;99.90
37410;DHT22;23275;48.914;12.566;2024-01-06T13:23:06;6.20;99.90
37410;DHT22;23275;48.914;12.566;2024-01-06T13:25:32;6.10;99.90
37410;DHT22;23275;48.914;12.566;2024-01-06T13:27:58;6.20;99.90
37410;DHT22;23275;48.914;12.566;2024-01-06T13:30:25;6.10;99.90
37410;DHT22;23275;48.914;12.566;2024-01-06T13:32:51;6.10;99.90
37410;DHT22;23275;48.914;12.566;2024-01-06T13:35:22;6.10;99.90
37410;DHT22;23275;48.914;12.566;2024-01-06T13:37:51;6.10;99.90
37410;DHT22;23275;48.914;12.566;2024-01-06T13:40:17;6.10;99.90
37410;DHT22;23275;48.914;12.566;2024-01-06T13:42:46;6.10;99.90
37410;DHT22;23275;48.914;12.566;2024-01-06T13:45:12;6.10;99.90
37410;DHT22;23275;48.914;12.566;2024-01-06T13:47:39;6.10;99.90
37410;DHT22;23275;48.914;12.566;2024-01-06T13:50:08;6.10;99.90
37410;DHT22;23275;48.914;12.566;2024-01-06T13:52:33;6.10;99.90
37410;DHT22;23275;48.914;12.566;2024-01-06T13:55:00;6.00;99.90
37410;DHT22;23275;48.914;12.566;2024-01-06T13:57:26;6.00;99.90
37410;DHT22;23275;48.914;12.566;2024-01-06T13:59:51;6.00;99.90
37410;DHT22;23275;48.914;12.566;2024-01-06T14:02:17;6.00;99.90
37410;DHT22;23275;48.914;12.566;2024-01-06T14:04:43;6.00;99.90
37410;DHT22;23275;48.914;12.566;2024-01-06T14:07:08;6.00;99.90
37410;DHT22;23275;48.914;12.566;2024-01-06T14:09:35;6.00;99.90
37410;DHT22;23275;48.914;12.566;2024-01-06T14:12:07;5.90;99.90
37410;DHT22;23275;48.914;12.566;2024-01-06T14:14:32;5.80;99.90
37410;DHT22;23275;48.914;12.566;2024-01-06T14:16:58;5.80;99.90
37410;DHT22;23275;48.914;12.566;2024-01-06T14:19:24;5.80;99.90
37410;DHT22;23275;48.914;12.566;2024-01-06T14:21:50;5.80;99.90
37410;DHT22;23275;48.914;12.566;2024-01-06T14:24:18;5.80;99.90
37410;DHT22;23275;48.914;12.566;2024-01-06T14:26:49;5.70;99.90
37410;DHT22;23275;48.914;12.566;2024-01-06T14:29:15;5.80;99.90
37410;DHT22;23275;48.914;12.566;2024-01-06T14:31:42;5.70;99.90
37410;DHT22;23275;48.914;12.566;2024-01-06T14:34:08;5.70;99.90
37410;DHT22;23275;48.914;12.566;2024-01-06T14:36:34;5.60;99.90
37410;DHT22;23275;48.914;12.566;2024-01-06T14:38:59;5.60;99.90
37410;DHT22;23275;48.914;12.566;2024-01-06T14:41:26;5.60;99.90
37410;DHT22;23275;48.914;12.566;2024-01-06T14:43:52;5.60;99.90
37410;DHT22;23275;48.914;12.566;2024-01-06T14:46:17;5.50;99.90
37410;DHT22;23275;48.914;12.566;2024-01-06T14:48:44;5.50;99.90
37410;DHT22;23275;48.914;12.566;2024-01-06T14:51:10;5.50;99.90
37410;DHT22;23275;48.914;12.566;2024-01-06T14:53:35;5.40;99.90
37410;DHT22;23275;48.914;12.566;2024-01-06T14:56:01;5.40;99.90
37410;DHT22;23275;48.914;12.566;2024-01-06T14:58:29;5.40;99.90
37410;DHT22;23275;48.914;12.566;2024-01-06T15:00:55;5.30;99.90
37410;DHT22;23275;48.914;12.566;2024-01-06T15:03:20;5.30;99.90
37410;DHT22;23275;48.914;12.566;2024-01-06T15:05:46;5.30;99.90
37410;DHT22;23275;48.914;12.566;2024-01-06T15:08:11;5.30;99.90
37410;DHT22;23275;48.914;12.566;2024-01-06T15:10:37;5.30;99.90
37410;DHT22;23275;48.914;12.566;2024-01-06T15:13:03;5.30;99.90
37410;DHT22;23275;48.914;12.566;2024-01-06T15:15:29;5.20;99.90
37410;DHT22;23275;48.914;12.566;2024-01-06T15:17:55;5.20;99.90
37410;DHT22;23275;48.914;12.566;2024-01-06T15:20:20;5.20;99.90
37410;DHT22;23275;48.914;12.566;2024-01-06T15:22:47;5.20;99.90
37410;DHT22;23275;48.914;12.566;2024-01-06T15:25:13;5.20;99.90
37410;DHT22;23275;48.914;12.566;2024-01-06T15:27:39;5.20;99.90
37410;DHT22;23275;48.914;12.566;2024-01-06T15:30:05;5.20;99.90
37410;DHT22;23275;48.914;12.566;2024-01-06T15:32:37;5.20;99.90